sensor_id;sensor_type;location;lat;lon;timestamp;pressure;altitude;pressure_sealevel;temperature;humidity
18652;BME280;9455;54.302;10.124;2022-10-31T00:01:00;101786.13;;;11.06;100.00
18652;BME280;9455;54.302;10.124;2022-10-31T00:03:27;101792.84;;;11.12;100.00
18652;BME280;9455;54.302;10.124;2022-10-31T00:05:54;101785.47;;;11.15;100.00
18652;BME280;9455;54.302;10.124;2022-10-31T00:08:21;101788.38;;;11.12;100.00
18652;BME280;9455;54.302;10.124;2022-10-31T00:10:48;101794.53;;;11.26;100.00
18652;BME280;9455;54.302;10.124;2022-10-31T00:13:15;101788.75;;;11.19;100.00
18652;BME280;9455;54.302;10.124;2022-10-31T00:15:41;101783.53;;;11.17;100.00
18652;BME280;9455;54.302;10.124;2022-10-31T00:18:09;101788.44;;;11.23;100.00
18652;BME280;9455;54.302;10.124;2022-10-31T00:20:36;101791.16;;;11.35;100.00
18652;BME280;9455;54.302;10.124;2022-10-31T00:23:04;101792.66;;;11.39;100.00
18652;BME280;9455;54.302;10.124;2022-10-31T00:25:35;101794.13;;;11.43;100.00
18652;BME280;9455;54.302;10.124;2022-10-31T00:28:02;101802.53;;;11.49;100.00
18652;BME280;9455;54.302;10.124;2022-10-31T00:30:28;101799.69;;;11.40;100.00
18652;BME280;9455;54.302;10.124;2022-10-31T00:32:55;101797.31;;;11.48;100.00
18652;BME280;9455;54.302;10.124;2022-10-31T00:35:21;101796.81;;;11.43;100.00
18652;BME280;9455;54.302;10.124;2022-10-31T00:37:48;101794.34;;;11.40;100.00
18652;BME280;9455;54.302;10.124;2022-10-31T00:40:14;101794.34;;;11.40;100.00
18652;BME280;9455;54.302;10.124;2022-10-31T00:42:42;101795.50;;;11.48;100.00
18652;BME280;9455;54.302;10.124;2022-10-31T00:45:09;101795.59;;;11.47;100.00
18652;BME280;9455;54.302;10.124;2022-10-31T00:47:36;101799.88;;;11.49;100.00
18652;BME280;9455;54.302;10.124;2022-10-31T00:50:03;101803.97;;;11.42;100.00
18652;BME280;9455;54.302;10.124;2022-10-31T00:52:30;101797.13;;;11.38;100.00
18652;BME280;9455;54.302;10.124;2022-10-31T00:54:56;101803.34;;;11.39;100.00
18652;BME280;9455;54.302;10.124;2022-10-31T00:57:22;101801.63;;;11.38;100.00
18652;BME280;9455;54.302;10.124;2022-10-31T00:59:50;101808.91;;;11.36;100.00
18652;BME280;9455;54.302;10.124;2022-10-31T01:02:17;101804.28;;;11.38;100.00
18652;BME280;9455;54.302;10.124;2022-10-31T01:04:43;101806.84;;;11.39;100.00
18652;BME280;9455;54.302;10.124;2022-10-31T01:07:10;101803.19;;;11.40;100.00
18652;BME280;9455;54.302;10.124;2022-10-31T01:09:37;101796.81;;;11.43;100.00
18652;BME280;9455;54.302;10.124;2022-10-31T01:12:04;101804.75;;;11.55;100.00
18652;BME280;9455;54.302;10.124;2022-10-31T01:14:30;101809.25;;;11.55;100.00
18652;BME280;9455;54.302;10.124;2022-10-31T01:16:58;101810.00;;;11.57;100.00
18652;BME280;9455;54.302;10.124;2022-10-31T01:19:24;101816.66;;;11.51;100.00
18652;BME280;9455;54.302;10.124;2022-10-31T01:21:53;101809.06;;;11.45;100.00
18652;BME280;9455;54.302;10.124;2022-10-31T01:24:20;101814.41;;;11.45;100.00
18652;BME280;9455;54.302;10.124;2022-10-31T01:26:46;101807.13;;;11.47;100.00
18652;BME280;9455;54.302;10.124;2022-10-31T01:29:13;101798.63;;;11.42;100.00
18652;BME280;9455;54.302;10.124;2022-10-31T01:31:39;101804.63;;;11.33;100.00
18652;BME280;9455;54.302;10.124;2022-10-31T01:34:12;101806.56;;;11.55;100.00
18652;BME280;9455;54.302;10.124;2022-10-31T01:36:39;101799.00;;;11.49;100.00
18652;BME280;9455;54.302;10.124;2022-10-31T01:39:09;101812.13;;;11.52;100.00
18652;BME280;9455;54.302;10.124;2022-10-31T01:41:37;101811.63;;;11.47;100.00
18652;BME280;9455;54.302;10.124;2022-10-31T01:47:05;101826.75;;;11.59;100.00
18652;BME280;9455;54.302;10.124;2022-10-31T01:49:37;101828.81;;;11.79;100.00
18652;BME280;9455;54.302;10.124;2022-10-31T01:52:10;101828.66;;;11.69;100.00
18652;BME280;9455;54.302;10.124;2022-10-31T01:54:43;101828.22;;;11.75;100.00
18652;BME280;9455;54.302;10.124;2022-10-31T01:57:12;101836.94;;;11.77;100.00
18652;BME280;9455;54.302;10.124;2022-10-31T01:59:43;101849.44;;;12.00;100.00
18652;BME280;9455;54.302;10.124;2022-10-31T02:02:15;101850.59;;;12.20;100.00
18652;BME280;9455;54.302;10.124;2022-10-31T02:04:44;101847.94;;;12.31;100.00
18652;BME280;9455;54.302;10.124;2022-10-31T02:07:14;101846.03;;;12.44;100.00
18652;BME280;9455;54.302;10.124;2022-10-31T02:09:43;101845.69;;;12.59;100.00
18652;BME280;9455;54.302;10.124;2022-10-31T02:12:11;101856.53;;;12.58;100.00
18652;BME280;9455;54.302;10.124;2022-10-31T02:14:39;101859.69;;;12.63;100.00
18652;BME280;9455;54.302;10.124;2022-10-31T02:17:06;101851.41;;;12.77;100.00
18652;BME280;9455;54.302;10.124;2022-10-31T02:19:37;101848.75;;;12.77;100.00
18652;BME280;9455;54.302;10.124;2022-10-31T02:22:12;101854.38;;;12.85;100.00
18652;BME280;9455;54.302;10.124;2022-10-31T02:24:46;101858.25;;;12.81;100.00
18652;BME280;9455;54.302;10.124;2022-10-31T02:27:36;101858.72;;;12.75;100.00
18652;BME280;9455;54.302;10.124;2022-10-31T02:30:14;101855.53;;;12.70;100.00
18652;BME280;9455;54.302;10.124;2022-10-31T02:32:48;101853.63;;;12.61;100.00
18652;BME280;9455;54.302;10.124;2022-10-31T02:35:27;101861.84;;;12.47;100.00
18652;BME280;9455;54.302;10.124;2022-10-31T02:38:01;101860.75;;;12.38;100.00
18652;BME280;9455;54.302;10.124;2022-10-31T02:40:33;101865.00;;;12.41;100.00
18652;BME280;9455;54.302;10.124;2022-10-31T02:43:05;101867.81;;;12.50;100.00
18652;BME280;9455;54.302;10.124;2022-10-31T02:45:36;101869.03;;;12.46;100.00
18652;BME280;9455;54.302;10.124;2022-10-31T02:48:10;101875.00;;;12.50;100.00
18652;BME280;9455;54.302;10.124;2022-10-31T02:50:41;101880.50;;;12.59;100.00
18652;BME280;9455;54.302;10.124;2022-10-31T02:53:08;101890.22;;;12.71;100.00
18652;BME280;9455;54.302;10.124;2022-10-31T02:55:53;101885.03;;;12.81;100.00
18652;BME280;9455;54.302;10.124;2022-10-31T02:58:22;101895.47;;;12.84;100.00
18652;BME280;9455;54.302;10.124;2022-10-31T03:01:04;101884.03;;;12.93;100.00
18652;BME280;9455;54.302;10.124;2022-10-31T03:03:36;101894.75;;;12.93;100.00
18652;BME280;9455;54.302;10.124;2022-10-31T03:06:12;101891.84;;;12.96;100.00
18652;BME280;9455;54.302;10.124;2022-10-31T03:08:52;101894.31;;;12.99;100.00
18652;BME280;9455;54.302;10.124;2022-10-31T03:11:23;101889.78;;;12.99;100.00
18652;BME280;9455;54.302;10.124;2022-10-31T03:13:59;101895.22;;;12.98;100.00
18652;BME280;9455;54.302;10.124;2022-10-31T03:16:32;101896.22;;;12.97;100.00
18652;BME280;9455;54.302;10.124;2022-10-31T03:19:06;101900.50;;;12.99;100.00
18652;BME280;9455;54.302;10.124;2022-10-31T03:21:37;101896.88;;;13.00;100.00
18652;BME280;9455;54.302;10.124;2022-10-31T03:24:08;101889.66;;;13.01;100.00
18652;BME280;9455;54.302;10.124;2022-10-31T03:26:38;101895.03;;;13.01;100.00
18652;BME280;9455;54.302;10.124;2022-10-31T03:29:06;101894.91;;;13.02;100.00
18652;BME280;9455;54.302;10.124;2022-10-31T03:31:35;101897.81;;;12.99;100.00
18652;BME280;9455;54.302;10.124;2022-10-31T03:34:04;101903.06;;;13.01;100.00
18652;BME280;9455;54.302;10.124;2022-10-31T03:36:34;101908.19;;;13.04;100.00
18652;BME280;9455;54.302;10.124;2022-10-31T03:39:02;101919.00;;;13.02;100.00
18652;BME280;9455;54.302;10.124;2022-10-31T03:41:32;101914.63;;;13.01;100.00
18652;BME280;9455;54.302;10.124;2022-10-31T03:44:04;101922.56;;;13.03;100.00
18652;BME280;9455;54.302;10.124;2022-10-31T03:46:31;101926.94;;;13.04;100.00
18652;BME280;9455;54.302;10.124;2022-10-31T03:48:58;101929.25;;;13.08;100.00
18652;BME280;9455;54.302;10.124;2022-10-31T03:51:31;101930.47;;;13.04;100.00
18652;BME280;9455;54.302;10.124;2022-10-31T03:54:06;101935.94;;;13.03;100.00
18652;BME280;9455;54.302;10.124;2022-10-31T03:56:36;101935.06;;;13.02;100.00
18652;BME280;9455;54.302;10.124;2022-10-31T03:59:06;101937.50;;;13.05;100.00
18652;BME280;9455;54.302;10.124;2022-10-31T04:01:38;101942.03;;;13.05;100.00
18652;BME280;9455;54.302;10.124;2022-10-31T04:04:06;101949.09;;;13.06;100.00
18652;BME280;9455;54.302;10.124;2022-10-31T04:06:36;101945.66;;;13.04;100.00
18652;BME280;9455;54.302;10.124;2022-10-31T04:09:05;101954.94;;;13.11;100.00
18652;BME280;9455;54.302;10.124;2022-10-31T04:11:36;101956.50;;;13.13;100.00
18652;BME280;9455;54.302;10.124;2022-10-31T04:14:04;101955.91;;;13.10;100.00
18652;BME280;9455;54.302;10.124;2022-10-31T04:16:32;101951.31;;;13.12;100.00
18652;BME280;9455;54.302;10.124;2022-10-31T04:18:58;101958.13;;;13.16;100.00
18652;BME280;9455;54.302;10.124;2022-10-31T04:21:28;101967.22;;;13.13;100.00
18652;BME280;9455;54.302;10.124;2022-10-31T04:23:56;101965.41;;;13.14;100.00
18652;BME280;9455;54.302;10.124;2022-10-31T04:26:23;101959.44;;;13.10;100.00
18652;BME280;9455;54.302;10.124;2022-10-31T04:28:50;101964.41;;;13.15;100.00
18652;BME280;9455;54.302;10.124;2022-10-31T04:31:16;101975.13;;;13.15;100.00
18652;BME280;9455;54.302;10.124;2022-10-31T04:33:43;101982.00;;;13.19;100.00
18652;BME280;9455;54.302;10.124;2022-10-31T04:36:10;101982.94;;;13.18;100.00
18652;BME280;9455;54.302;10.124;2022-10-31T04:38:36;101977.56;;;13.18;100.00
18652;BME280;9455;54.302;10.124;2022-10-31T04:41:04;101982.09;;;13.17;100.00
18652;BME280;9455;54.302;10.124;2022-10-31T04:43:31;101980.03;;;13.21;100.00
18652;BME280;9455;54.302;10.124;2022-10-31T04:45:58;101980.13;;;13.19;100.00
18652;BME280;9455;54.302;10.124;2022-10-31T04:48:24;101980.03;;;13.21;100.00
18652;BME280;9455;54.302;10.124;2022-10-31T04:50:51;101975.75;;;13.18;100.00
18652;BME280;9455;54.302;10.124;2022-10-31T04:53:17;101972.97;;;13.20;100.00
18652;BME280;9455;54.302;10.124;2022-10-31T04:55:43;101974.91;;;13.18;100.00
18652;BME280;9455;54.302;10.124;2022-10-31T04:58:11;101983.91;;;13.17;100.00
18652;BME280;9455;54.302;10.124;2022-10-31T05:00:38;101980.75;;;13.12;100.00
18652;BME280;9455;54.302;10.124;2022-10-31T05:03:04;101980.75;;;13.12;100.00
18652;BME280;9455;54.302;10.124;2022-10-31T05:05:31;101988.91;;;13.10;100.00
18652;BME280;9455;54.302;10.124;2022-10-31T05:07:58;101987.31;;;13.08;100.00
18652;BME280;9455;54.302;10.124;2022-10-31T05:10:26;101980.25;;;13.07;100.00
18652;BME280;9455;54.302;10.124;2022-10-31T05:12:54;101978.44;;;13.07;100.00
18652;BME280;9455;54.302;10.124;2022-10-31T05:15:24;101976.22;;;13.01;100.00
18652;BME280;9455;54.302;10.124;2022-10-31T05:17:51;101975.00;;;13.05;100.00
18652;BME280;9455;54.302;10.124;2022-10-31T05:20:20;101974.88;;;13.07;100.00
18652;BME280;9455;54.302;10.124;2022-10-31T05:22:49;101974.78;;;13.08;100.00
18652;BME280;9455;54.302;10.124;2022-10-31T05:25:16;101971.63;;;13.03;100.00
18652;BME280;9455;54.302;10.124;2022-10-31T05:27:45;101975.13;;;13.04;100.00
18652;BME280;9455;54.302;10.124;2022-10-31T05:30:14;101979.78;;;13.02;100.00
18652;BME280;9455;54.302;10.124;2022-10-31T05:32:44;101984.88;;;13.05;100.00
18652;BME280;9455;54.302;10.124;2022-10-31T05:35:13;101988.28;;;13.07;100.00
18652;BME280;9455;54.302;10.124;2022-10-31T05:37:40;101986.34;;;13.09;100.00
18652;BME280;9455;54.302;10.124;2022-10-31T05:40:08;101993.75;;;13.05;100.00
18652;BME280;9455;54.302;10.124;2022-10-31T05:42:35;101997.91;;;13.09;100.00
18652;BME280;9455;54.302;10.124;2022-10-31T05:45:04;101996.56;;;13.15;100.00
18652;BME280;9455;54.302;10.124;2022-10-31T05:47:31;101997.91;;;13.09;100.00
18652;BME280;9455;54.302;10.124;2022-10-31T05:49:59;102001.56;;;13.08;100.00
18652;BME280;9455;54.302;10.124;2022-10-31T05:52:25;102007.03;;;13.07;100.00
18652;BME280;9455;54.302;10.124;2022-10-31T05:54:52;101995.59;;;13.05;100.00
18652;BME280;9455;54.302;10.124;2022-10-31T05:57:18;101999.75;;;13.09;100.00
18652;BME280;9455;54.302;10.124;2022-10-31T05:59:45;101999.22;;;13.04;100.00
18652;BME280;9455;54.302;10.124;2022-10-31T06:02:11;101999.00;;;13.07;100.00
18652;BME280;9455;54.302;10.124;2022-10-31T06:04:38;102005.03;;;12.98;100.00
18652;BME280;9455;54.302;10.124;2022-10-31T06:07:06;102008.69;;;12.97;100.00
18652;BME280;9455;54.302;10.124;2022-10-31T06:09:32;102003.13;;;13.00;100.00
18652;BME280;9455;54.302;10.124;2022-10-31T06:11:59;102009.34;;;13.00;100.00
18652;BME280;9455;54.302;10.124;2022-10-31T06:14:26;101999.28;;;12.91;100.00
18652;BME280;9455;54.302;10.124;2022-10-31T06:16:54;102008.91;;;12.94;100.00
18652;BME280;9455;54.302;10.124;2022-10-31T06:19:20;102013.53;;;12.92;100.00
18652;BME280;9455;54.302;10.124;2022-10-31T06:21:47;102007.22;;;12.93;100.00
18652;BME280;9455;54.302;10.124;2022-10-31T06:24:14;102012.91;;;12.88;100.00
18652;BME280;9455;54.302;10.124;2022-10-31T06:26:41;102014.25;;;12.94;100.00
18652;BME280;9455;54.302;10.124;2022-10-31T06:29:07;102018.94;;;13.03;100.00
18652;BME280;9455;54.302;10.124;2022-10-31T06:31:34;102016.63;;;12.98;100.00
18652;BME280;9455;54.302;10.124;2022-10-31T06:34:00;102017.25;;;13.02;100.00
18652;BME280;9455;54.302;10.124;2022-10-31T06:36:27;102015.53;;;13.01;100.00
18652;BME280;9455;54.302;10.124;2022-10-31T06:38:53;102017.16;;;13.03;100.00
18652;BME280;9455;54.302;10.124;2022-10-31T06:41:21;102021.53;;;13.04;100.00
18652;BME280;9455;54.302;10.124;2022-10-31T06:43:48;102030.91;;;13.10;100.00
18652;BME280;9455;54.302;10.124;2022-10-31T06:46:14;102039.53;;;13.13;100.00
18652;BME280;9455;54.302;10.124;2022-10-31T06:48:41;102044.19;;;13.11;100.00
18652;BME280;9455;54.302;10.124;2022-10-31T06:51:07;102047.56;;;13.13;100.00
18652;BME280;9455;54.302;10.124;2022-10-31T06:53:34;102048.44;;;13.14;100.00
18652;BME280;9455;54.302;10.124;2022-10-31T06:56:00;102050.63;;;13.09;100.00
18652;BME280;9455;54.302;10.124;2022-10-31T06:58:28;102051.47;;;13.09;100.00
18652;BME280;9455;54.302;10.124;2022-10-31T07:00:55;102058.44;;;13.12;100.00
18652;BME280;9455;54.302;10.124;2022-10-31T07:03:21;102061.25;;;13.21;100.00
18652;BME280;9455;54.302;10.124;2022-10-31T07:05:47;102067.19;;;13.14;100.00
18652;BME280;9455;54.302;10.124;2022-10-31T07:08:14;102066.19;;;13.15;100.00
18652;BME280;9455;54.302;10.124;2022-10-31T07:10:42;102060.34;;;13.10;100.00
18652;BME280;9455;54.302;10.124;2022-10-31T07:13:11;102067.94;;;13.16;100.00
18652;BME280;9455;54.302;10.124;2022-10-31T07:15:41;102065.22;;;13.05;100.00
18652;BME280;9455;54.302;10.124;2022-10-31T07:18:09;102070.59;;;13.05;100.00
18652;BME280;9455;54.302;10.124;2022-10-31T07:20:36;102072.28;;;13.06;100.00
18652;BME280;9455;54.302;10.124;2022-10-31T07:23:03;102074.09;;;13.05;100.00
18652;BME280;9455;54.302;10.124;2022-10-31T07:25:30;102080.56;;;13.14;100.00
18652;BME280;9455;54.302;10.124;2022-10-31T07:27:56;102083.72;;;13.08;100.00
18652;BME280;9455;54.302;10.124;2022-10-31T07:30:23;102080.56;;;13.14;100.00
18652;BME280;9455;54.302;10.124;2022-10-31T07:32:51;102081.22;;;13.17;100.00
18652;BME280;9455;54.302;10.124;2022-10-31T07:35:19;102080.81;;;13.22;100.00
18652;BME280;9455;54.302;10.124;2022-10-31T07:37:46;102085.59;;;13.29;100.00
18652;BME280;9455;54.302;10.124;2022-10-31T07:40:13;102088.53;;;13.26;100.00
18652;BME280;9455;54.302;10.124;2022-10-31T07:42:41;102093.88;;;13.26;100.00
18652;BME280;9455;54.302;10.124;2022-10-31T07:45:10;102097.66;;;13.24;100.00
18652;BME280;9455;54.302;10.124;2022-10-31T07:47:40;102095.94;;;13.23;100.00
18652;BME280;9455;54.302;10.124;2022-10-31T07:50:10;102098.63;;;13.23;100.00
18652;BME280;9455;54.302;10.124;2022-10-31T07:52:38;102100.69;;;13.30;100.00
18652;BME280;9455;54.302;10.124;2022-10-31T07:55:05;102101.31;;;13.23;100.00
18652;BME280;9455;54.302;10.124;2022-10-31T07:57:32;102106.69;;;13.34;100.00
18652;BME280;9455;54.302;10.124;2022-10-31T07:59:58;102103.00;;;13.24;100.00
18652;BME280;9455;54.302;10.124;2022-10-31T08:02:25;102111.03;;;13.13;100.00
18652;BME280;9455;54.302;10.124;2022-10-31T08:04:52;102111.25;;;13.10;100.00
18652;BME280;9455;54.302;10.124;2022-10-31T08:07:21;102102.22;;;13.11;100.00
18652;BME280;9455;54.302;10.124;2022-10-31T08:09:48;102109.78;;;13.06;100.00
18652;BME280;9455;54.302;10.124;2022-10-31T08:12:14;102110.44;;;12.97;100.00
18652;BME280;9455;54.302;10.124;2022-10-31T08:14:41;102110.34;;;12.98;100.00
18652;BME280;9455;54.302;10.124;2022-10-31T08:17:07;102124.78;;;12.96;100.00
18652;BME280;9455;54.302;10.124;2022-10-31T08:19:34;102119.50;;;12.83;100.00
18652;BME280;9455;54.302;10.124;2022-10-31T08:22:00;102128.53;;;12.82;100.00
18652;BME280;9455;54.302;10.124;2022-10-31T08:24:28;102122.69;;;12.88;100.00
18652;BME280;9455;54.302;10.124;2022-10-31T08:26:55;102126.31;;;13.00;100.00
18652;BME280;9455;54.302;10.124;2022-10-31T08:29:21;102126.31;;;13.00;100.00
18652;BME280;9455;54.302;10.124;2022-10-31T08:31:48;102129.97;;;12.99;100.00
18652;BME280;9455;54.302;10.124;2022-10-31T08:34:15;102130.34;;;13.05;100.00
18652;BME280;9455;54.302;10.124;2022-10-31T08:36:41;102133.81;;;12.95;100.00
18652;BME280;9455;54.302;10.124;2022-10-31T08:39:10;102131.03;;;12.96;100.00
18652;BME280;9455;54.302;10.124;2022-10-31T08:41:38;102133.34;;;13.01;100.00
18652;BME280;9455;54.302;10.124;2022-10-31T08:44:04;102132.63;;;12.99;100.00
18652;BME280;9455;54.302;10.124;2022-10-31T08:46:31;102139.84;;;12.86;100.00
18652;BME280;9455;54.302;10.124;2022-10-31T08:48:58;102134.25;;;12.89;100.00
18652;BME280;9455;54.302;10.124;2022-10-31T08:51:24;102134.16;;;12.90;100.00
18652;BME280;9455;54.302;10.124;2022-10-31T08:53:51;102140.06;;;12.83;100.00
18652;BME280;9455;54.302;10.124;2022-10-31T08:56:17;102139.03;;;12.73;100.00
18652;BME280;9455;54.302;10.124;2022-10-31T08:58:45;102144.69;;;12.81;100.00
18652;BME280;9455;54.302;10.124;2022-10-31T09:01:11;102143.50;;;12.85;100.00
18652;BME280;9455;54.302;10.124;2022-10-31T09:03:38;102139.63;;;12.89;100.00
18652;BME280;9455;54.302;10.124;2022-10-31T09:06:05;102134.25;;;12.89;100.00
18652;BME280;9455;54.302;10.124;2022-10-31T09:08:34;102133.13;;;13.04;100.00
18652;BME280;9455;54.302;10.124;2022-10-31T09:11:01;102135.31;;;12.99;100.00
18652;BME280;9455;54.302;10.124;2022-10-31T09:13:28;102135.13;;;12.89;100.00
18652;BME280;9455;54.302;10.124;2022-10-31T09:15:56;102127.81;;;12.91;100.00
18652;BME280;9455;54.302;10.124;2022-10-31T09:18:24;102137.31;;;12.95;100.00
18652;BME280;9455;54.302;10.124;2022-10-31T09:20:53;102127.88;;;13.02;100.00
18652;BME280;9455;54.302;10.124;2022-10-31T09:23:21;102138.19;;;12.96;100.00
18652;BME280;9455;54.302;10.124;2022-10-31T09:25:49;102143.16;;;13.13;100.00
18652;BME280;9455;54.302;10.124;2022-10-31T09:28:17;102137.47;;;13.17;100.00
18652;BME280;9455;54.302;10.124;2022-10-31T09:30:46;102136.81;;;13.14;100.00
18652;BME280;9455;54.302;10.124;2022-10-31T09:33:14;102134.91;;;13.16;100.00
18652;BME280;9455;54.302;10.124;2022-10-31T09:35:41;102135.84;;;13.15;100.00
18652;BME280;9455;54.302;10.124;2022-10-31T09:38:10;102138.81;;;13.23;100.00
18652;BME280;9455;54.302;10.124;2022-10-31T09:40:39;102140.50;;;13.24;100.00
18652;BME280;9455;54.302;10.124;2022-10-31T09:43:14;102141.75;;;13.31;100.00
18652;BME280;9455;54.302;10.124;2022-10-31T09:45:49;102131.81;;;13.44;100.00
18652;BME280;9455;54.302;10.124;2022-10-31T09:48:29;102140.56;;;13.46;100.00
18652;BME280;9455;54.302;10.124;2022-10-31T09:51:00;102126.53;;;13.31;100.00
18652;BME280;9455;54.302;10.124;2022-10-31T09:53:33;102134.59;;;13.42;100.00
18652;BME280;9455;54.302;10.124;2022-10-31T09:56:05;102135.84;;;13.49;100.00
18652;BME280;9455;54.302;10.124;2022-10-31T09:58:39;102136.72;;;13.50;100.00
18652;BME280;9455;54.302;10.124;2022-10-31T10:01:17;102135.38;;;13.55;100.00
18652;BME280;9455;54.302;10.124;2022-10-31T10:03:50;102136.72;;;13.61;100.00
18652;BME280;9455;54.302;10.124;2022-10-31T10:06:23;102139.28;;;13.62;100.00
18652;BME280;9455;54.302;10.124;2022-10-31T10:08:50;102137.66;;;13.60;100.00
18652;BME280;9455;54.302;10.124;2022-10-31T10:11:27;102140.00;;;13.64;100.00
18652;BME280;9455;54.302;10.124;2022-10-31T10:14:04;102135.97;;;13.59;100.00
18652;BME280;9455;54.302;10.124;2022-10-31T10:16:56;102137.44;;;13.63;100.00
18652;BME280;9455;54.302;10.124;2022-10-31T10:19:38;102146.22;;;13.65;100.00
18652;BME280;9455;54.302;10.124;2022-10-31T10:22:12;102147.09;;;13.76;100.00
18652;BME280;9455;54.302;10.124;2022-10-31T10:24:55;102139.41;;;13.72;100.00
18652;BME280;9455;54.302;10.124;2022-10-31T10:27:36;102138.66;;;13.81;100.00
18652;BME280;9455;54.302;10.124;2022-10-31T10:30:12;102133.94;;;13.96;100.00
18652;BME280;9455;54.302;10.124;2022-10-31T10:32:42;102136.75;;;14.16;100.00
18652;BME280;9455;54.302;10.124;2022-10-31T10:35:21;102128.94;;;14.13;100.00
18652;BME280;9455;54.302;10.124;2022-10-31T10:37:50;102131.63;;;14.13;100.00
18652;BME280;9455;54.302;10.124;2022-10-31T10:40:20;102137.00;;;14.13;100.00
18652;BME280;9455;54.302;10.124;2022-10-31T10:42:55;102134.44;;;14.12;100.00
18652;BME280;9455;54.302;10.124;2022-10-31T10:45:40;102139.19;;;14.08;100.00
18652;BME280;9455;54.302;10.124;2022-10-31T10:48:32;102133.09;;;14.17;100.00
18652;BME280;9455;54.302;10.124;2022-10-31T10:51:08;102141.25;;;14.38;100.00
18652;BME280;9455;54.302;10.124;2022-10-31T10:53:46;102143.84;;;14.28;100.00
18652;BME280;9455;54.302;10.124;2022-10-31T10:56:36;102138.59;;;14.27;100.00
18652;BME280;9455;54.302;10.124;2022-10-31T10:59:04;102137.97;;;14.34;100.00
18652;BME280;9455;54.302;10.124;2022-10-31T11:01:30;102138.97;;;14.33;100.00
18652;BME280;9455;54.302;10.124;2022-10-31T11:03:57;102141.63;;;14.44;100.00
18652;BME280;9455;54.302;10.124;2022-10-31T11:06:25;102138.81;;;14.46;100.00
18652;BME280;9455;54.302;10.124;2022-10-31T11:08:52;102138.19;;;14.53;100.00
18652;BME280;9455;54.302;10.124;2022-10-31T11:11:24;102130.38;;;14.61;100.00
18652;BME280;9455;54.302;10.124;2022-10-31T11:13:57;102127.41;;;14.64;99.72
18652;BME280;9455;54.302;10.124;2022-10-31T11:16:31;102121.50;;;14.81;99.76
18652;BME280;9455;54.302;10.124;2022-10-31T11:19:09;102118.47;;;14.75;100.00
18652;BME280;9455;54.302;10.124;2022-10-31T11:21:42;102120.91;;;14.78;99.74
18652;BME280;9455;54.302;10.124;2022-10-31T11:24:14;102111.56;;;14.61;97.72
18652;BME280;9455;54.302;10.124;2022-10-31T11:26:42;102114.81;;;14.76;95.17
18652;BME280;9455;54.302;10.124;2022-10-31T11:29:15;102106.91;;;14.63;95.81
18652;BME280;9455;54.302;10.124;2022-10-31T11:31:43;102107.03;;;14.62;95.66
18652;BME280;9455;54.302;10.124;2022-10-31T11:34:18;102108.28;;;14.58;95.36
18652;BME280;9455;54.302;10.124;2022-10-31T11:36:47;102105.22;;;14.62;94.62
18652;BME280;9455;54.302;10.124;2022-10-31T11:39:17;102110.84;;;14.59;96.39
18652;BME280;9455;54.302;10.124;2022-10-31T11:41:45;102099.81;;;14.73;96.29
18652;BME280;9455;54.302;10.124;2022-10-31T11:44:14;102099.06;;;14.82;96.26
18652;BME280;9455;54.302;10.124;2022-10-31T11:46:45;102090.25;;;14.80;94.95
18652;BME280;9455;54.302;10.124;2022-10-31T11:49:16;102084.63;;;14.83;93.91
18652;BME280;9455;54.302;10.124;2022-10-31T11:51:49;102080.72;;;14.87;92.75
18652;BME280;9455;54.302;10.124;2022-10-31T11:54:22;102084.31;;;14.97;95.58
18652;BME280;9455;54.302;10.124;2022-10-31T11:56:50;102071.22;;;15.04;97.50
18652;BME280;9455;54.302;10.124;2022-10-31T11:59:25;102085.97;;;15.09;97.85
18652;BME280;9455;54.302;10.124;2022-10-31T12:01:54;102079.16;;;15.05;94.79
18652;BME280;9455;54.302;10.124;2022-10-31T12:04:28;102078.31;;;15.05;95.50
18652;BME280;9455;54.302;10.124;2022-10-31T12:06:58;102070.44;;;15.13;94.85
18652;BME280;9455;54.302;10.124;2022-10-31T12:09:27;102070.72;;;15.10;93.01
18652;BME280;9455;54.302;10.124;2022-10-31T12:12:16;102075.69;;;15.14;93.19
18652;BME280;9455;54.302;10.124;2022-10-31T12:14:54;102082.31;;;15.10;94.05
18652;BME280;9455;54.302;10.124;2022-10-31T12:17:29;102076.00;;;15.21;92.72
18652;BME280;9455;54.302;10.124;2022-10-31T12:20:05;102073.00;;;15.14;93.46
18652;BME280;9455;54.302;10.124;2022-10-31T12:22:44;102070.97;;;15.07;94.05
18652;BME280;9455;54.302;10.124;2022-10-31T12:25:24;102073.19;;;15.22;94.08
18652;BME280;9455;54.302;10.124;2022-10-31T12:28:12;102071.88;;;15.17;95.20
18652;BME280;9455;54.302;10.124;2022-10-31T12:30:57;102083.25;;;15.20;93.71
18652;BME280;9455;54.302;10.124;2022-10-31T12:33:36;102074.97;;;15.12;94.05
18652;BME280;9455;54.302;10.124;2022-10-31T12:36:19;102063.69;;;15.18;94.53
18652;BME280;9455;54.302;10.124;2022-10-31T12:39:00;102070.84;;;15.08;93.89
18652;BME280;9455;54.302;10.124;2022-10-31T12:41:40;102063.28;;;15.02;94.48
18652;BME280;9455;54.302;10.124;2022-10-31T12:44:27;102067.63;;;15.14;94.34
18652;BME280;9455;54.302;10.124;2022-10-31T12:47:10;102067.63;;;15.14;94.61
18652;BME280;9455;54.302;10.124;2022-10-31T12:49:51;102072.06;;;15.04;93.63
18652;BME280;9455;54.302;10.124;2022-10-31T12:52:33;102059.38;;;15.06;92.36
18652;BME280;9455;54.302;10.124;2022-10-31T12:55:16;102065.94;;;15.13;91.39
18652;BME280;9455;54.302;10.124;2022-10-31T12:57:46;102067.34;;;14.97;91.15